Time;durP1;ratioP1;P1;durP2;ratioP2;P2;SDS_P1;SDS_P2;PMS_P1;PMS_P2;Temp;Humidity;BMP_temperature;BMP_pressure;BME280_temperature;BME280_humidity;BME280_pressure;Samples;Min_cycle;Max_cycle;Signal;HPM_P1;HPM_P2
2022/09/09 00:02:17;;;;;;;95.43;25.07;;;13.50;99.90;;;;;;5022682;28;20311;-79
2022/09/09 00:04:50;;;;;;;108.30;26.47;;;13.50;99.90;;;;;;5011807;28;20297;-79
2022/09/09 00:07:26;;;;;;;95.97;25.43;;;13.50;99.90;;;;;;5017138;28;20237;-79
2022/09/09 00:10:05;;;;;;;127.97;25.30;;;13.50;99.90;;;;;;5021576;28;20259;-79
2022/09/09 00:12:38;;;;;;;96.10;24.97;;;13.50;99.90;;;;;;5019482;28;20226;-79
2022/09/09 00:15:13;;;;;;;123.20;26.13;;;13.50;99.90;;;;;;5020692;28;20251;-79
2022/09/09 00:17:46;;;;;;;95.43;24.30;;;13.50;99.90;;;;;;5005388;28;20846;-78
2022/09/09 00:20:17;;;;;;;98.77;24.60;;;13.50;99.90;;;;;;5018670;28;21694;-78
2022/09/09 00:22:51;;;;;;;127.33;25.97;;;13.50;99.90;;;;;;5023582;28;20216;-79
2022/09/09 00:25:27;;;;;;;113.70;25.77;;;13.50;99.90;;;;;;5019444;28;20233;-78
2022/09/09 00:27:55;;;;;;;76.60;24.00;;;13.50;99.90;;;;;;5027061;28;20224;-79
2022/09/09 00:30:24;;;;;;;128.33;25.33;;;13.50;99.90;;;;;;5022906;28;20641;-79
2022/09/09 00:32:57;;;;;;;121.33;23.23;;;13.50;99.90;;;;;;5023220;28;20216;-79
2022/09/09 00:35:28;;;;;;;50.43;21.00;;;13.50;99.90;;;;;;5011341;28;20227;-79
2022/09/09 00:38:01;;;;;;;100.80;22.90;;;13.40;99.90;;;;;;5019618;28;20230;-78
2022/09/09 00:40:33;;;;;;;67.70;22.50;;;13.40;99.90;;;;;;5015219;28;20226;-78
2022/09/09 00:43:17;;;;;;;71.10;22.73;;;13.40;99.90;;;;;;5036666;28;21078;-79
2022/09/09 00:46:00;;;;;;;76.73;23.00;;;13.40;99.90;;;;;;5031213;28;20687;-78
2022/09/09 00:48:35;;;;;;;56.50;21.10;;;13.40;99.90;;;;;;5024901;28;20758;-79
2022/09/09 00:51:11;;;;;;;63.20;21.37;;;13.40;99.90;;;;;;5019527;28;20230;-79
2022/09/09 00:53:57;;;;;;;92.60;23.37;;;13.40;99.90;;;;;;5015044;28;20215;-79
2022/09/09 00:56:30;;;;;;;77.53;22.47;;;13.40;99.90;;;;;;5029860;28;20361;-79
2022/09/09 00:59:07;;;;;;;42.40;20.10;;;13.40;99.90;;;;;;5020690;28;20228;-79
2022/09/09 01:01:35;;;;;;;44.40;20.30;;;13.40;99.90;;;;;;5016125;28;20235;-79
2022/09/09 01:04:10;;;;;;;78.27;22.20;;;13.40;99.90;;;;;;5022476;28;20236;-79
2022/09/09 01:06:39;;;;;;;65.00;20.97;;;13.40;99.90;;;;;;5013424;28;20823;-79
2022/09/09 01:09:17;;;;;;;67.87;21.47;;;13.50;99.90;;;;;;5023392;28;20318;-79
2022/09/09 01:11:52;;;;;;;56.67;20.93;;;13.40;99.90;;;;;;5036389;28;20238;-80
2022/09/09 01:14:33;;;;;;;59.90;21.43;;;13.40;99.90;;;;;;5018834;28;20242;-79
2022/09/09 01:17:05;;;;;;;51.17;21.57;;;13.40;99.90;;;;;;5019953;28;20219;-79
2022/09/09 01:19:45;;;;;;;51.20;21.03;;;13.40;99.90;;;;;;5013880;28;20213;-78
2022/09/09 01:22:27;;;;;;;63.03;22.20;;;13.40;99.90;;;;;;5018433;28;20236;-79
2022/09/09 01:25:15;;;;;;;71.37;22.50;;;13.40;99.90;;;;;;5020962;28;21933;-79
2022/09/09 01:27:58;;;;;;;49.57;21.53;;;13.30;99.90;;;;;;5019609;28;20222;-79
2022/09/09 01:30:27;;;;;;;70.67;22.70;;;13.30;99.90;;;;;;5019424;28;20292;-77
2022/09/09 01:32:58;;;;;;;68.03;20.33;;;13.30;99.90;;;;;;5034084;28;21264;-77
2022/09/09 01:35:35;;;;;;;64.67;22.70;;;13.30;99.90;;;;;;5011985;28;20312;-78
2022/09/09 01:38:04;;;;;;;98.93;24.60;;;13.30;99.90;;;;;;5019576;28;20251;-78
2022/09/09 01:40:31;;;;;;;77.43;23.37;;;13.30;99.90;;;;;;5012921;28;20236;-78
2022/09/09 01:42:59;;;;;;;54.70;22.70;;;13.30;99.90;;;;;;5035098;28;20230;-78
2022/09/09 01:45:26;;;;;;;84.23;24.07;;;13.30;99.90;;;;;;5018877;28;20223;-79
2022/09/09 01:47:53;;;;;;;52.37;21.83;;;13.30;99.90;;;;;;5023337;28;20236;-79
2022/09/09 01:50:30;;;;;;;76.20;22.63;;;13.30;99.90;;;;;;5020733;28;20319;-79
2022/09/09 01:53:02;;;;;;;132.33;25.60;;;13.30;99.90;;;;;;5014821;28;20948;-78
2022/09/09 01:55:34;;;;;;;72.70;22.40;;;13.30;99.90;;;;;;5009270;28;20220;-79
2022/09/09 01:58:18;;;;;;;113.20;23.97;;;13.30;99.90;;;;;;5027022;28;20286;-78
2022/09/09 02:00:57;;;;;;;145.93;26.23;;;13.30;99.90;;;;;;5018709;28;20230;-78
2022/09/09 02:03:27;;;;;;;112.17;25.27;;;13.30;99.90;;;;;;5015099;28;20233;-78
2022/09/09 02:06:15;;;;;;;61.30;22.30;;;13.20;99.90;;;;;;5014172;28;20301;-78
2022/09/09 02:08:46;;;;;;;45.77;20.93;;;13.30;99.90;;;;;;5027275;28;20285;-77
2022/09/09 02:11:15;;;;;;;34.37;21.27;;;13.20;99.90;;;;;;5013039;28;20727;-77
2022/09/09 02:14:09;;;;;;;114.60;25.00;;;13.20;99.90;;;;;;5017454;28;20210;-78
2022/09/09 02:16:43;;;;;;;123.07;24.93;;;13.20;99.90;;;;;;5018078;28;20232;-79
2022/09/09 02:19:16;;;;;;;95.63;24.03;;;13.20;99.90;;;;;;5024303;28;20293;-79
2022/09/09 02:21:57;;;;;;;88.73;22.70;;;13.20;99.90;;;;;;5041180;28;20944;-80
2022/09/09 02:24:26;;;;;;;124.53;24.47;;;13.20;99.90;;;;;;5025019;28;20265;-79
2022/09/09 02:27:07;;;;;;;169.57;27.70;;;13.20;99.90;;;;;;5027160;28;20221;-79
2022/09/09 02:29:38;;;;;;;192.53;27.63;;;13.20;99.90;;;;;;5014510;28;20231;-79
2022/09/09 02:32:09;;;;;;;173.53;26.40;;;13.20;99.90;;;;;;5020426;28;20911;-79
2022/09/09 02:34:43;;;;;;;99.57;23.00;;;13.20;99.90;;;;;;5022422;28;20226;-78
2022/09/09 02:37:13;;;;;;;117.17;24.10;;;13.20;99.90;;;;;;5031396;28;21004;-79
2022/09/09 02:39:44;;;;;;;124.37;23.83;;;13.20;99.90;;;;;;5008192;28;20227;-78
2022/09/09 02:42:15;;;;;;;124.33;24.43;;;13.20;99.90;;;;;;5015170;28;20731;-79
2022/09/09 02:44:46;;;;;;;108.50;23.70;;;13.20;99.90;;;;;;5015880;28;20234;-79
2022/09/09 02:47:28;;;;;;;105.60;22.40;;;13.20;99.90;;;;;;5017287;28;20222;-79
2022/09/09 02:50:06;;;;;;;105.10;23.13;;;13.20;99.90;;;;;;5016989;28;20783;-79
2022/09/09 02:52:41;;;;;;;105.10;22.83;;;13.20;99.90;;;;;;5029050;28;20228;-79
2022/09/09 02:55:21;;;;;;;46.40;21.93;;;13.20;99.90;;;;;;5015459;28;20211;-78
2022/09/09 02:57:49;;;;;;;63.90;20.50;;;13.20;99.90;;;;;;5012596;28;20225;-79
2022/09/09 03:00:24;;;;;;;94.33;22.13;;;13.20;99.90;;;;;;5021034;28;20235;-79
2022/09/09 03:02:51;;;;;;;53.00;21.50;;;13.20;99.90;;;;;;5030795;28;20221;-78
2022/09/09 03:05:18;;;;;;;40.90;20.50;;;13.20;99.90;;;;;;5016699;28;20227;-78
2022/09/09 03:07:45;;;;;;;38.33;20.13;;;13.10;99.90;;;;;;5017655;28;20223;-79
2022/09/09 03:10:13;;;;;;;48.03;20.63;;;13.20;99.90;;;;;;5039600;28;20281;-79
2022/09/09 03:12:40;;;;;;;85.80;21.47;;;13.10;99.90;;;;;;5001502;28;20227;-78
2022/09/09 03:15:09;;;;;;;70.80;22.03;;;13.20;99.90;;;;;;5006753;28;20222;-80
2022/09/09 03:17:38;;;;;;;44.60;19.47;;;13.10;99.90;;;;;;5017103;28;20289;-80
2022/09/09 03:20:05;;;;;;;42.90;21.03;;;13.20;99.90;;;;;;5021649;28;20219;-79
2022/09/09 03:22:32;;;;;;;53.27;21.77;;;13.10;99.90;;;;;;5012822;28;20225;-80
2022/09/09 03:25:01;;;;;;;68.47;22.50;;;13.10;99.90;;;;;;5019824;28;20239;-80
2022/09/09 03:27:28;;;;;;;81.83;21.67;;;13.10;99.90;;;;;;5022632;28;20253;-78
2022/09/09 03:29:55;;;;;;;34.73;18.93;;;13.00;99.90;;;;;;5018740;28;20253;-79
2022/09/09 03:32:25;;;;;;;44.70;20.60;;;13.10;99.90;;;;;;5009976;28;20732;-79
2022/09/09 03:34:54;;;;;;;36.03;21.00;;;13.10;99.90;;;;;;5034763;28;20693;-80
2022/09/09 03:37:22;;;;;;;34.13;19.97;;;13.10;99.90;;;;;;5029231;28;20671;-78
2022/09/09 03:39:50;;;;;;;71.13;21.53;;;13.10;99.90;;;;;;5022184;28;20261;-78
2022/09/09 03:42:19;;;;;;;58.13;22.20;;;13.00;99.90;;;;;;5018380;28;20225;-78
2022/09/09 03:44:49;;;;;;;35.07;20.60;;;13.00;99.90;;;;;;5019283;28;20309;-78
2022/09/09 03:47:19;;;;;;;46.40;21.27;;;13.00;99.90;;;;;;5039500;28;20831;-78
2022/09/09 03:49:45;;;;;;;38.97;20.37;;;13.00;99.90;;;;;;5017713;28;20234;-78
2022/09/09 03:52:14;;;;;;;30.73;20.17;;;12.90;99.90;;;;;;5022136;28;20272;-78
2022/09/09 03:54:42;;;;;;;39.27;20.97;;;12.90;99.90;;;;;;5026721;28;20235;-78
2022/09/09 03:57:09;;;;;;;29.60;19.67;;;12.90;99.90;;;;;;5024379;28;20278;-78
2022/09/09 03:59:36;;;;;;;28.53;19.47;;;12.90;99.90;;;;;;5019936;28;20228;-79
2022/09/09 04:02:04;;;;;;;47.57;20.43;;;12.90;99.90;;;;;;5008000;28;20226;-79
2022/09/09 04:04:31;;;;;;;30.13;19.70;;;12.90;99.90;;;;;;5018140;28;20226;-79
2022/09/09 04:06:57;;;;;;;45.40;20.23;;;12.90;99.90;;;;;;5041566;28;20265;-79
2022/09/09 04:09:25;;;;;;;41.43;20.63;;;12.90;99.90;;;;;;5024364;28;20251;-78
2022/09/09 04:11:53;;;;;;;30.20;19.27;;;12.80;99.90;;;;;;5019759;28;20323;-78
2022/09/09 04:14:21;;;;;;;49.97;20.13;;;12.90;99.90;;;;;;5017982;28;20215;-79
2022/09/09 04:16:51;;;;;;;34.97;19.23;;;12.80;99.90;;;;;;5024911;28;20213;-78
2022/09/09 04:19:17;;;;;;;30.20;19.73;;;12.80;99.90;;;;;;5027649;28;20640;-78
2022/09/09 04:21:44;;;;;;;39.43;19.47;;;12.80;99.90;;;;;;5013363;28;20800;-78
2022/09/09 04:24:12;;;;;;;23.67;18.00;;;12.80;99.90;;;;;;5017233;28;20293;-79
2022/09/09 04:26:40;;;;;;;38.70;20.57;;;12.80;99.90;;;;;;5013377;28;20247;-78
2022/09/09 04:29:07;;;;;;;39.27;20.10;;;12.80;99.90;;;;;;5023913;28;20229;-78
2022/09/09 04:31:35;;;;;;;43.50;20.60;;;12.70;99.90;;;;;;5016099;28;20340;-79
2022/09/09 04:34:05;;;;;;;37.87;19.93;;;12.80;99.90;;;;;;5020929;28;20282;-78
2022/09/09 04:36:32;;;;;;;39.93;20.20;;;12.80;99.90;;;;;;5027915;28;20230;-80
2022/09/09 04:39:02;;;;;;;34.77;19.57;;;12.70;99.90;;;;;;5024156;28;20250;-78
2022/09/09 04:41:31;;;;;;;28.93;20.43;;;12.70;99.90;;;;;;5014946;28;20262;-78
2022/09/09 04:44:00;;;;;;;26.13;19.10;;;12.70;99.90;;;;;;5009902;28;20598;-79
2022/09/09 04:46:27;;;;;;;26.87;21.27;;;12.70;99.90;;;;;;5027953;28;20224;-80
2022/09/09 04:48:54;;;;;;;28.13;19.83;;;12.70;99.90;;;;;;5029370;28;20273;-79
2022/09/09 04:51:22;;;;;;;25.20;19.50;;;12.70;99.90;;;;;;5017326;28;20237;-79
2022/09/09 04:53:50;;;;;;;25.70;19.13;;;12.70;99.90;;;;;;5022470;28;20323;-79
2022/09/09 04:56:25;;;;;;;23.13;19.13;;;12.70;99.90;;;;;;5018268;28;21287;-79
2022/09/09 04:58:55;;;;;;;24.07;18.43;;;12.70;99.90;;;;;;5039290;28;20213;-79
2022/09/09 05:01:27;;;;;;;21.83;17.43;;;12.70;99.90;;;;;;5009134;28;20794;-79
2022/09/09 05:04:00;;;;;;;22.17;17.10;;;12.70;99.90;;;;;;5018190;28;20250;-78
2022/09/09 05:06:27;;;;;;;22.63;17.27;;;12.70;99.90;;;;;;5031210;28;20712;-79
2022/09/09 05:08:58;;;;;;;23.17;16.93;;;12.80;99.90;;;;;;5014249;28;20219;-79
2022/09/09 05:11:29;;;;;;;21.40;16.70;;;12.80;99.90;;;;;;5019727;28;20232;-83
2022/09/09 05:14:01;;;;;;;22.07;16.47;;;12.80;99.90;;;;;;5025665;28;20654;-82
2022/09/09 05:16:31;;;;;;;20.60;15.67;;;12.80;99.90;;;;;;5031650;28;20931;-81
2022/09/09 05:18:58;;;;;;;21.00;15.50;;;12.70;99.90;;;;;;5015166;28;20283;-83
2022/09/09 05:21:28;;;;;;;21.53;16.17;;;12.80;99.90;;;;;;5011690;28;20229;-83
2022/09/09 05:23:55;;;;;;;15.70;13.87;;;12.70;99.90;;;;;;5037377;28;20786;-83
2022/09/09 05:26:23;;;;;;;18.17;14.33;;;12.70;99.90;;;;;;5017220;28;20218;-83
2022/09/09 05:28:54;;;;;;;17.23;14.40;;;12.70;99.90;;;;;;5023798;28;20222;-83
2022/09/09 05:31:22;;;;;;;17.83;13.80;;;12.70;99.90;;;;;;5026277;28;20282;-83
2022/09/09 05:33:53;;;;;;;19.90;14.10;;;12.70;99.90;;;;;;5022753;28;20725;-83
2022/09/09 05:36:21;;;;;;;18.67;14.53;;;12.60;99.90;;;;;;5017292;28;20546;-83
2022/09/09 05:38:53;;;;;;;18.27;14.23;;;12.60;99.90;;;;;;5023461;28;20224;-83
2022/09/09 05:41:20;;;;;;;16.03;13.60;;;12.60;99.90;;;;;;5023057;28;20249;-83
2022/09/09 05:43:48;;;;;;;17.07;12.67;;;12.60;99.90;;;;;;5022027;28;20218;-84
2022/09/09 05:46:17;;;;;;;17.03;12.83;;;12.70;99.90;;;;;;5022198;28;20233;-83
2022/09/09 05:48:47;;;;;;;18.43;12.73;;;12.70;99.90;;;;;;5029106;28;20219;-84
2022/09/09 05:51:17;;;;;;;14.90;12.57;;;12.70;99.90;;;;;;5021678;28;20248;-83
2022/09/09 05:53:45;;;;;;;14.67;12.13;;;12.80;99.90;;;;;;5014679;28;20236;-83
2022/09/09 05:56:15;;;;;;;15.03;12.20;;;12.80;99.90;;;;;;5035871;28;20228;-83
2022/09/09 05:58:46;;;;;;;14.73;12.40;;;12.80;99.90;;;;;;5006478;28;20222;-83
2022/09/09 06:01:16;;;;;;;14.73;11.97;;;12.90;99.90;;;;;;5006259;28;20341;-83
2022/09/09 06:03:44;;;;;;;18.77;11.77;;;13.00;99.90;;;;;;5016226;28;20680;-83
2022/09/09 06:06:12;;;;;;;13.93;11.83;;;13.00;99.90;;;;;;5015725;28;20326;-84
2022/09/09 06:08:44;;;;;;;13.27;11.23;;;13.00;99.90;;;;;;5018084;28;20659;-83
2022/09/09 06:11:13;;;;;;;13.90;10.67;;;13.10;99.90;;;;;;5014837;28;20508;-82
2022/09/09 06:13:40;;;;;;;13.13;10.80;;;13.10;99.90;;;;;;5009545;28;20743;-84
2022/09/09 06:16:11;;;;;;;13.77;10.40;;;13.10;99.90;;;;;;5020963;28;20849;-83
2022/09/09 06:18:40;;;;;;;12.70;10.07;;;13.20;99.90;;;;;;5010835;28;20321;-83
2022/09/09 06:21:09;;;;;;;12.03;10.20;;;13.30;99.90;;;;;;5018903;28;20702;-83
2022/09/09 06:23:36;;;;;;;11.47;9.03;;;13.30;99.90;;;;;;5007690;28;20311;-83
2022/09/09 06:26:07;;;;;;;11.57;8.83;;;13.30;99.90;;;;;;5016858;28;20285;-83
2022/09/09 06:28:36;;;;;;;11.60;9.13;;;13.40;99.90;;;;;;5008926;28;20225;-83
2022/09/09 06:31:05;;;;;;;10.90;9.30;;;13.50;99.90;;;;;;5027304;28;20232;-83
2022/09/09 06:33:34;;;;;;;14.13;9.13;;;13.60;99.90;;;;;;5003795;28;20701;-84
2022/09/09 06:36:03;;;;;;;9.73;8.40;;;13.70;99.90;;;;;;5014707;28;20226;-83
2022/09/09 06:38:30;;;;;;;10.97;7.90;;;13.80;99.90;;;;;;5013067;28;20235;-83
2022/09/09 06:40:58;;;;;;;9.20;8.03;;;13.90;99.90;;;;;;5024255;28;20236;-82
2022/09/09 06:43:27;;;;;;;9.03;7.03;;;14.00;99.90;;;;;;4988042;28;20225;-82
2022/09/09 06:45:57;;;;;;;9.33;7.50;;;14.00;99.90;;;;;;5028096;28;20767;-82
2022/09/09 06:48:26;;;;;;;9.93;6.63;;;14.10;99.90;;;;;;5016706;28;20645;-82
2022/09/09 06:51:01;;;;;;;8.90;7.10;;;14.10;99.90;;;;;;5022066;28;20294;-82
2022/09/09 06:53:29;;;;;;;8.37;6.47;;;14.20;99.90;;;;;;5017862;28;20288;-83
2022/09/09 06:55:56;;;;;;;7.07;6.33;;;14.20;99.90;;;;;;5019180;28;20464;-82
2022/09/09 06:58:23;;;;;;;16.87;7.40;;;14.30;99.90;;;;;;5002840;28;20653;-82
2022/09/09 07:00:52;;;;;;;7.77;6.37;;;14.40;99.90;;;;;;5040864;28;20721;-82
2022/09/09 07:03:19;;;;;;;7.70;6.47;;;14.50;99.90;;;;;;5007663;28;20219;-83
2022/09/09 07:05:55;;;;;;;8.00;6.33;;;14.60;99.90;;;;;;5020183;28;20243;-83
2022/09/09 07:08:24;;;;;;;8.70;6.10;;;14.60;99.90;;;;;;5017672;28;20220;-83
2022/09/09 07:10:53;;;;;;;8.33;5.77;;;14.70;99.90;;;;;;5020705;28;20223;-84
2022/09/09 07:13:25;;;;;;;9.13;5.23;;;14.80;99.90;;;;;;5012125;28;20744;-84
2022/09/09 07:15:53;;;;;;;5.90;4.80;;;14.90;99.90;;;;;;5014794;28;20625;-83
2022/09/09 07:18:21;;;;;;;9.40;5.03;;;15.00;99.90;;;;;;5011849;28;20238;-83
2022/09/09 07:20:54;;;;;;;6.47;4.90;;;15.10;99.90;;;;;;5024883;28;20777;-83
2022/09/09 07:23:21;;;;;;;5.80;5.20;;;15.10;99.90;;;;;;5013083;28;20221;-83
2022/09/09 07:25:48;;;;;;;5.87;5.20;;;15.20;99.90;;;;;;5024893;28;20231;-84
2022/09/09 07:28:16;;;;;;;6.80;5.13;;;15.20;99.90;;;;;;5023684;28;20228;-84
2022/09/09 07:30:43;;;;;;;6.80;5.07;;;15.20;99.90;;;;;;5016150;28;20512;-83
2022/09/09 07:33:11;;;;;;;5.73;4.30;;;15.20;99.90;;;;;;5019087;28;20211;-83
2022/09/09 07:35:38;;;;;;;6.63;4.57;;;15.30;99.90;;;;;;5016036;28;20237;-83
2022/09/09 07:38:06;;;;;;;6.53;4.77;;;15.30;99.90;;;;;;5024854;28;20397;-83
2022/09/09 07:40:36;;;;;;;6.10;4.70;;;15.40;99.90;;;;;;5009078;28;20592;-84
2022/09/09 07:43:03;;;;;;;5.30;4.80;;;15.40;99.90;;;;;;5025436;28;20638;-83
2022/09/09 07:45:35;;;;;;;9.23;4.77;;;15.50;99.90;;;;;;5014965;28;20690;-83
2022/09/09 07:48:03;;;;;;;8.33;5.27;;;15.50;99.90;;;;;;5026085;28;20462;-83
2022/09/09 07:50:32;;;;;;;5.83;4.27;;;15.70;99.90;;;;;;5011953;28;20688;-84
2022/09/09 07:52:59;;;;;;;5.23;4.47;;;15.90;99.90;;;;;;5025520;28;20518;-83
2022/09/09 07:55:30;;;;;;;6.33;3.87;;;16.10;99.90;;;;;;5014243;28;20711;-83
2022/09/09 07:57:56;;;;;;;5.30;4.63;;;16.30;99.90;;;;;;5038690;28;20884;-83
2022/09/09 08:00:23;;;;;;;5.27;3.97;;;16.50;99.90;;;;;;5018945;28;20331;-84
2022/09/09 08:02:54;;;;;;;6.13;4.43;;;16.80;99.90;;;;;;5025351;28;20311;-83
2022/09/09 08:05:22;;;;;;;6.60;3.57;;;17.10;99.90;;;;;;5005664;28;20271;-84
2022/09/09 08:07:51;;;;;;;5.27;3.27;;;17.60;99.90;;;;;;5023389;28;20212;-84
2022/09/09 08:10:18;;;;;;;5.03;3.40;;;18.20;99.90;;;;;;5023831;28;20236;-84
2022/09/09 08:12:47;;;;;;;6.00;3.13;;;18.70;99.90;;;;;;5023770;28;20246;-84
2022/09/09 08:15:14;;;;;;;5.13;3.20;;;19.20;99.90;;;;;;5025651;28;22386;-84
2022/09/09 08:17:41;;;;;;;3.30;2.73;;;19.60;99.90;;;;;;5019466;28;20882;-83
2022/09/09 08:20:09;;;;;;;3.53;2.77;;;19.80;99.90;;;;;;5023229;28;20231;-83
2022/09/09 08:22:37;;;;;;;3.57;2.63;;;20.10;99.90;;;;;;5015507;28;20295;-83
2022/09/09 08:25:08;;;;;;;4.80;3.13;;;20.10;99.90;;;;;;5023941;28;20312;-84
2022/09/09 08:27:37;;;;;;;2.73;2.27;;;20.10;99.90;;;;;;5020443;28;20286;-84
2022/09/09 08:30:04;;;;;;;4.40;2.40;;;20.00;99.90;;;;;;5026695;28;20221;-84
2022/09/09 08:32:31;;;;;;;5.23;2.73;;;19.80;99.90;;;;;;5009889;28;20478;-84
2022/09/09 08:34:59;;;;;;;6.13;2.90;;;19.70;99.90;;;;;;5033839;28;20337;-84
2022/09/09 08:37:25;;;;;;;4.30;2.73;;;19.50;99.90;;;;;;5012454;28;20484;-83
2022/09/09 08:39:53;;;;;;;3.30;2.50;;;19.50;99.90;;;;;;5017498;28;20391;-84
2022/09/09 08:42:38;;;;;;;6.57;3.53;;;19.60;99.90;;;;;;5018661;28;20232;-84
2022/09/09 08:45:31;;;;;;;5.13;2.80;;;19.80;99.90;;;;;;5027759;28;20724;-85
2022/09/09 08:48:20;;;;;;;4.60;2.40;;;20.20;99.90;;;;;;5027043;28;20218;-84
2022/09/09 08:50:51;;;;;;;5.17;2.53;;;20.50;99.90;;;;;;5034345;28;20221;-84
2022/09/09 08:53:25;;;;;;;8.10;1.77;;;20.70;99.90;;;;;;5018664;28;20320;-85
2022/09/09 08:55:55;;;;;;;3.13;2.30;;;20.70;99.90;;;;;;5023812;28;20212;-84
2022/09/09 08:58:34;;;;;;;2.60;2.37;;;20.40;99.90;;;;;;5019471;28;20254;-84
2022/09/09 09:01:31;;;;;;;2.40;2.10;;;20.20;99.90;;;;;;5026899;28;20410;-84
2022/09/09 09:04:06;;;;;;;5.60;1.97;;;20.00;99.90;;;;;;5019529;28;20230;-85
2022/09/09 09:06:48;;;;;;;4.13;2.17;;;19.80;99.90;;;;;;5011260;28;20229;-84
2022/09/09 09:09:22;;;;;;;3.40;2.03;;;19.60;99.90;;;;;;5017812;28;20779;-85
2022/09/09 09:11:52;;;;;;;3.57;1.90;;;19.40;99.90;;;;;;5017602;28;20715;-83
2022/09/09 09:14:23;;;;;;;3.17;2.00;;;19.40;99.90;;;;;;5016375;28;20713;-83
2022/09/09 09:16:54;;;;;;;3.47;1.73;;;19.30;99.90;;;;;;5022175;28;20229;-87
2022/09/09 09:19:26;;;;;;;3.90;1.73;;;19.40;99.90;;;;;;5016840;28;20649;-85
2022/09/09 09:21:59;;;;;;;2.67;1.90;;;19.60;99.90;;;;;;5028761;28;20217;-84
2022/09/09 09:24:33;;;;;;;4.27;1.80;;;19.70;99.90;;;;;;5016181;28;20232;-83
2022/09/09 09:27:07;;;;;;;2.73;1.53;;;19.90;99.90;;;;;;5017771;28;20228;-83
2022/09/09 09:29:40;;;;;;;3.77;2.00;;;20.10;99.90;;;;;;5015559;28;20279;-83
2022/09/09 09:32:12;;;;;;;2.93;1.77;;;20.30;99.90;;;;;;5020466;28;20228;-83
2022/09/09 09:34:39;;;;;;;4.20;2.07;;;20.50;99.90;;;;;;5022687;28;20231;-83
2022/09/09 09:37:19;;;;;;;4.83;1.90;;;20.70;99.90;;;;;;5018909;28;20509;-82
2022/09/09 09:39:50;;;;;;;3.80;1.53;;;20.90;99.90;;;;;;5012886;28;20229;-85
2022/09/09 09:42:20;;;;;;;3.77;1.77;;;21.00;99.90;;;;;;5018940;28;20249;-86
2022/09/09 09:44:49;;;;;;;3.83;1.95;;;21.00;99.90;;;;;;5009194;28;20248;-82
2022/09/09 09:47:21;;;;;;;2.30;1.60;;;21.00;99.90;;;;;;5004860;28;20222;-83
2022/09/09 09:50:00;;;;;;;3.67;1.70;;;21.00;99.90;;;;;;5033786;28;20319;-84
2022/09/09 09:52:34;;;;;;;2.13;1.38;;;21.10;99.90;;;;;;5014950;28;20225;-83
2022/09/09 09:55:07;;;;;;;5.75;1.90;;;21.30;99.90;;;;;;5012283;28;20252;-85
2022/09/09 09:57:34;;;;;;;5.03;1.80;;;21.60;99.90;;;;;;5016369;28;20565;-83
2022/09/09 10:00:16;;;;;;;2.20;1.20;;;21.90;99.90;;;;;;5020533;28;20243;-85
2022/09/09 10:02:46;;;;;;;3.58;1.42;;;22.20;99.90;;;;;;5014067;28;20216;-83
2022/09/09 10:05:21;;;;;;;3.53;1.23;;;22.60;99.90;;;;;;5019958;28;20221;-82
2022/09/09 10:08:02;;;;;;;2.60;1.13;;;22.90;99.90;;;;;;5018012;28;20690;-84
2022/09/09 10:10:38;;;;;;;3.78;1.48;;;23.20;98.50;;;;;;5022444;28;20236;-85
2022/09/09 10:13:13;;;;;;;2.67;1.27;;;23.40;98.50;;;;;;5020785;28;20217;-84
2022/09/09 10:15:49;;;;;;;2.30;1.10;;;23.60;98.30;;;;;;5016697;28;20247;-84
2022/09/09 10:18:58;;;;;;;2.95;1.17;;;23.60;97.60;;;;;;5016895;28;20506;-81
2022/09/09 10:21:38;;;;;;;3.38;1.40;;;23.60;98.10;;;;;;4959083;28;20645;-82
2022/09/09 10:24:31;;;;;;;1.85;1.10;;;23.50;98.10;;;;;;4942372;28;20228;-84
2022/09/09 10:27:05;;;;;;;1.75;1.40;;;23.40;97.80;;;;;;5002260;28;20229;-83
2022/09/09 10:29:43;;;;;;;3.33;1.27;;;23.50;97.70;;;;;;5017457;28;20225;-84
2022/09/09 10:32:34;;;;;;;1.55;1.00;;;23.60;97.70;;;;;;5017419;28;20232;-85
2022/09/09 10:35:09;;;;;;;2.92;1.20;;;23.80;96.50;;;;;;5018087;28;20585;-83
2022/09/09 10:37:54;;;;;;;2.63;0.90;;;24.10;97.80;;;;;;5021600;28;20221;-82
2022/09/09 10:40:30;;;;;;;1.83;0.70;;;24.40;97.40;;;;;;5016098;28;20229;-83
2022/09/09 10:43:13;;;;;;;1.75;0.90;;;24.70;97.20;;;;;;5016843;28;20212;-86
2022/09/09 10:45:50;;;;;;;2.03;0.85;;;25.00;96.00;;;;;;5015131;28;20235;-85
2022/09/09 10:48:31;;;;;;;2.45;1.00;;;25.30;96.40;;;;;;5017568;28;20226;-82
2022/09/09 10:51:07;;;;;;;2.10;1.10;;;25.60;95.10;;;;;;5013928;28;20270;-83
2022/09/09 10:53:44;;;;;;;2.60;1.10;;;25.80;95.40;;;;;;5024305;28;20220;-82
2022/09/09 10:56:13;;;;;;;3.03;1.10;;;26.00;94.70;;;;;;5009312;28;20381;-85
2022/09/09 10:58:47;;;;;;;4.97;1.20;;;26.00;93.40;;;;;;5018672;28;20235;-83
2022/09/09 11:01:19;;;;;;;2.42;1.08;;;25.90;92.90;;;;;;5017646;28;20312;-82
2022/09/09 11:03:53;;;;;;;3.28;1.17;;;25.90;93.40;;;;;;5029314;28;20225;-84
2022/09/09 11:06:25;;;;;;;2.88;1.02;;;25.70;92.40;;;;;;5023948;28;20229;-83
2022/09/09 11:08:54;;;;;;;2.47;0.90;;;25.40;92.70;;;;;;5018770;28;20299;-84
2022/09/09 11:11:30;;;;;;;5.70;1.25;;;25.00;93.50;;;;;;5011859;28;20229;-84
2022/09/09 11:14:04;;;;;;;1.30;0.90;;;24.70;93.20;;;;;;5018203;28;20227;-84
2022/09/09 11:16:41;;;;;;;3.10;1.15;;;24.40;94.10;;;;;;5014566;28;20220;-83
2022/09/09 11:19:16;;;;;;;2.70;1.05;;;24.20;94.10;;;;;;5009247;28;20230;-85
2022/09/09 11:21:46;;;;;;;3.35;1.13;;;24.00;95.10;;;;;;5022284;28;20232;-83
2022/09/09 11:24:22;;;;;;;2.63;0.98;;;24.10;95.90;;;;;;5015869;28;20240;-82
2022/09/09 11:26:55;;;;;;;3.70;0.93;;;24.20;94.40;;;;;;5017952;28;20270;-85
2022/09/09 11:30:00;;;;;;;4.32;0.90;;;24.30;94.90;;;;;;5011432;28;20291;-82
2022/09/09 11:32:41;;;;;;;2.55;1.00;;;24.50;95.30;;;;;;5027626;28;20231;-83
2022/09/09 11:35:32;;;;;;;2.95;0.90;;;24.70;94.80;;;;;;5016980;28;20736;-84
2022/09/09 11:38:17;;;;;;;2.05;0.98;;;24.90;94.70;;;;;;5022563;28;20233;-85
2022/09/09 11:40:45;;;;;;;1.98;1.10;;;25.10;94.30;;;;;;5012851;28;20224;-83
2022/09/09 11:43:19;;;;;;;1.98;0.90;;;25.20;94.60;;;;;;5016841;28;20311;-82
2022/09/09 11:45:53;;;;;;;1.75;1.10;;;25.30;93.60;;;;;;5012867;28;20232;-83
2022/09/09 11:48:31;;;;;;;1.83;1.10;;;25.40;93.60;;;;;;5018725;28;20631;-84
2022/09/09 11:51:07;;;;;;;2.42;0.98;;;25.60;93.20;;;;;;5015399;28;20373;-83
2022/09/09 11:53:35;;;;;;;1.63;1.00;;;25.70;92.00;;;;;;5020579;28;20891;-85
2022/09/09 11:56:05;;;;;;;1.88;0.80;;;25.90;92.60;;;;;;5010081;28;20225;-83
2022/09/09 11:58:40;;;;;;;3.90;0.90;;;25.80;92.10;;;;;;5013749;28;20364;-85
2022/09/09 12:01:35;;;;;;;2.22;0.80;;;25.70;91.40;;;;;;5017313;28;20274;-82
2022/09/09 12:04:29;;;;;;;4.00;1.20;;;25.30;90.40;;;;;;5029009;28;20220;-83
2022/09/09 12:06:59;;;;;;;1.85;0.93;;;25.00;91.30;;;;;;5021975;28;20227;-82
2022/09/09 12:09:38;;;;;;;2.42;0.73;;;24.70;92.60;;;;;;5021324;28;20228;-84
2022/09/09 12:12:23;;;;;;;3.25;1.10;;;24.50;92.40;;;;;;5018471;28;20228;-84
2022/09/09 12:15:00;;;;;;;1.85;0.85;;;24.20;93.30;;;;;;5024422;28;20239;-82
2022/09/09 12:17:28;;;;;;;1.95;1.00;;;24.10;92.60;;;;;;5023099;28;20221;-82
2022/09/09 12:20:05;;;;;;;2.03;1.00;;;23.90;93.50;;;;;;5021579;28;20885;-83
2022/09/09 12:22:41;;;;;;;3.05;1.25;;;23.80;93.60;;;;;;5015982;28;20769;-83
2022/09/09 12:25:20;;;;;;;1.95;1.10;;;23.80;93.40;;;;;;5022071;28;20224;-84
2022/09/09 12:27:57;;;;;;;3.78;1.27;;;23.80;93.70;;;;;;5028650;28;20637;-82
2022/09/09 12:30:30;;;;;;;1.90;1.05;;;23.90;94.20;;;;;;5026507;28;20243;-83
2022/09/09 12:33:02;;;;;;;2.22;1.00;;;23.90;94.00;;;;;;5020922;28;20681;-85
2022/09/09 12:35:30;;;;;;;2.38;1.50;;;23.80;94.20;;;;;;5010773;28;20232;-85
2022/09/09 12:38:02;;;;;;;1.77;1.17;;;23.70;94.00;;;;;;5013896;28;20213;-81
2022/09/09 12:40:32;;;;;;;2.67;1.35;;;23.40;94.40;;;;;;5019372;28;20236;-81
2022/09/09 12:43:01;;;;;;;2.72;1.40;;;23.20;94.60;;;;;;5016826;28;20228;-81
2022/09/09 12:45:30;;;;;;;6.00;1.75;;;23.00;94.70;;;;;;5022491;28;20224;-80
2022/09/09 12:48:03;;;;;;;1.95;1.17;;;22.80;95.30;;;;;;5021347;28;20307;-80
2022/09/09 12:50:35;;;;;;;2.10;1.20;;;22.70;95.40;;;;;;5018287;28;20257;-80
2022/09/09 12:53:09;;;;;;;3.15;1.58;;;22.50;95.90;;;;;;5018499;28;20704;-80
2022/09/09 12:55:39;;;;;;;2.90;1.48;;;22.50;96.00;;;;;;5018002;28;20242;-82
2022/09/09 12:58:08;;;;;;;2.83;1.40;;;22.40;96.30;;;;;;5013706;28;20329;-79
2022/09/09 13:00:35;;;;;;;2.78;1.45;;;22.30;96.60;;;;;;5017490;28;20244;-81
2022/09/09 13:03:04;;;;;;;3.08;1.48;;;22.20;96.80;;;;;;5020575;28;20221;-80